• Join FlightAware (Why Join?)
  • Login
  • US Flag 
11:06PM EDT


 

Airport Tracker/Info


-or-


 

Live Flight TrackerFlight Track Log ✈ UAL690 ✈ 08-Apr-2013 ✈ KORD - KLGA

Flight Track Log - Related Links

Times and Time Zones

All times are in EDT time to prevent confusion due to time zone crossing. See the UAL690 flight status page for this flight to view local times or setup timezone preferences in your user account.

Time Position Orientation Groundspeed Altitude Reporting Facility
EDT Latitude Longitude Course Direction KTS MPH feet Rate Location/Type
08:18PM 42.0000 -87.8500 90° East 168 193 2,500  Level Chicago TRACON
08:19PM 42.0000 -87.7833 90° East 247 284 4,300 3,180 Climbing Chicago TRACON
08:21PM 41.9411 -87.2504 96° East  Level FlightAware Approximate
08:21PM 41.9864 -87.5453 94° East 317 365 12,100  Level Chicago Center
08:22PM 41.9333 -87.0882 90° East  Level FlightAware Approximate
08:22PM 41.9744 -87.4044 96° East 372 428 13,900  Level Chicago Center
08:23PM 41.9334 -86.9253 90° East  Level FlightAware Approximate
08:23PM 41.9594 -87.2342 97° East 450 518 15,900  Level Chicago Center
08:24PM 41.9453 -87.0558 96° East 476 548 18,600 2,340 Climbing Chicago Center
08:25PM 41.9219 -86.8692 99° East 502 578 20,800 1,620 Climbing Chicago Center
08:26PM 41.8783 -86.6694 106° East 516 594 22,000 1,320 Climbing Chicago Center
08:27PM 41.8403 -86.4794 105° East 525 604 23,600 1,500 Climbing Chicago Center
08:28PM 41.8028 -86.2839 104° East 541 623 25,200 1,380 Climbing Chicago Center
08:29PM 41.8014 -86.0789 90° East 546 628 26,500 840 Climbing Chicago Center
08:30PM 41.7983 -85.8311 91° East 552 635 27,000 900 Climbing Chicago Center
08:31PM 41.7972 -85.6219 90° East 556 640 28,400 1,620 Climbing Chicago Center
08:32PM 41.7947 -85.4119 91° East 552 635 30,400 1,680 Climbing Chicago Center
08:33PM 41.7919 -85.2047 91° East 545 627 31,900 1,320 Climbing Chicago Center
08:34PM 41.7933 -85.1094 89° East 558 642 32,400 1,380 Climbing Cleveland Center
08:35PM 41.7853 -84.7883 92° East 558 642 34,800 1,260 Climbing Chicago Center
08:36PM 41.7839 -84.7022 91° East 553 636 35,000 120 Climbing Cleveland Center
08:37PM 41.7806 -84.4986 91° East 553 636 35,000  Level Cleveland Center
08:38PM 41.7789 -84.2925 91° East 553 636 35,000  Level Cleveland Center
08:39PM 41.7742 -84.1139 92° East 553 636 35,000  Level Cleveland Center
08:40PM 41.7719 -83.9078 91° East 548 631 35,000 -60 Level Cleveland Center
08:41PM 41.7694 -83.7069 91° East 553 636 34,900  Descending Cleveland Center
08:42PM 41.7608 -83.4783 93° East 558 642 35,000  Climbing Cleveland Center
08:43PM 41.7428 -83.2769 97° East 553 636 35,000 -60 Level Cleveland Center
08:44PM 41.7244 -83.0761 97° East 553 636 34,900 -60 Descending Cleveland Center
08:45PM 41.7036 -82.8750 98° East 548 631 34,900  Level Cleveland Center
08:46PM 41.6844 -82.6711 97° East 548 631 35,000  Climbing Cleveland Center
08:47PM 41.6631 -82.4731 98° East 542 624 35,000  Level Cleveland Center
08:48PM 41.6428 -82.2919 98° East 542 624 35,000  Level Cleveland Center
08:49PM 41.6206 -82.0914 98° East 542 624 35,000  Level Cleveland Center
08:50PM 41.5983 -81.8714 98° East 542 624 35,000  Level Cleveland Center
08:51PM 41.5753 -81.6711 99° East 547 629 35,000  Level Cleveland Center
08:52PM 41.5522 -81.4711 99° East 542 624 35,000  Level Cleveland Center
08:53PM 41.5306 -81.2656 98° East 542 624 35,000 -60 Level Cleveland Center
08:55PM 41.4925 -80.8908 98° East 543 625 34,900 -60 Descending Cleveland Center
08:56PM 41.4742 -80.6911 97° East 543 625 34,900  Level Cleveland Center
08:57PM 41.4575 -80.4944 96° East 537 618 35,000  Climbing Cleveland Center
08:58PM 41.4386 -80.2922 97° East 537 618 34,900  Descending Cleveland Center
08:59PM 41.4192 -80.0958 97° East 537 618 35,000  Climbing Cleveland Center
09:00PM 41.3992 -79.8800 97° East 537 618 34,900 -60 Descending Cleveland Center
09:01PM 41.3789 -79.6783 98° East 542 624 34,900  Level Cleveland Center
09:02PM 41.3606 -79.4794 97° East 542 624 35,000  Climbing Cleveland Center
09:03PM 41.3397 -79.2889 98° East 537 618 34,900 -240 Descending Cleveland Center
09:04PM 41.3186 -79.0958 98° East 525 604 34,600 -960 Descending Cleveland Center
09:05PM 41.3014 -78.9053 97° East 519 597 33,000 -840 Descending Cleveland Center
09:06PM 41.2819 -78.7125 98° East 519 597 33,000 -60 Level Cleveland Center
09:07PM 41.2578 -78.5197 99° East 519 597 32,900  Descending Cleveland Center
09:08PM 41.2353 -78.3231 99° East 505 581 33,000  Climbing New York Center
09:09PM 41.2142 -78.1303 98° East 518 596 33,000  Level New York Center
09:10PM 41.1906 -77.9372 99° East 525 604 33,000  Level New York Center
09:11PM 41.1664 -77.7472 100° East 525 604 33,000  Level New York Center
09:12PM 41.1422 -77.5544 99° East 530 610 33,000  Level New York Center
09:13PM 41.1122 -77.3478 101° East 525 604 33,000  Level New York Center
09:14PM 41.0892 -77.1556 99° East 525 604 33,000 -480 Level New York Center
09:15PM 41.0617 -76.9683 101° East 525 604 32,100 -2,220 Descending New York Center
09:16PM 41.0364 -76.7736 100° East 525 604 28,600 -3,600 Descending New York Center
09:17PM 41.0039 -76.5892 103° East 519 597 24,900 -3,420 Descending New York Center
09:18PM 40.9656 -76.4319 108° East 510 587 21,700 -3,300 Descending New York Center
09:19PM 40.9278 -76.2639 107° East 487 560 18,400 -2,700 Descending New York Center
09:20PM 40.8892 -76.1044 108° East 470 541 16,500 -1,800 Descending New York Center
09:21PM 40.8486 -75.9394 108° East 470 541 14,800 -1,620 Descending New York Center
09:22PM 40.8094 -75.7828 108° East 460 529 13,200 -960 Descending New York Center
09:23PM 40.7722 -75.6294 108° East 416 479 12,900 -180 Descending New York Center
09:24PM 40.7378 -75.4981 109° East 410 472 12,900 -420 Level New York Center
09:25PM 40.6931 -75.3664 114° Southeast 400 460 12,100 -840 Descending New York Center
09:26PM 40.6442 -75.2236 114° Southeast 400 460 11,200 -840 Descending New York Center
09:27PM 40.5667 -75.0000 114° Southeast 382 440 10,000 -660 Descending New York TRACON
09:28PM 40.5558 -74.9639 112° Southeast 387 445 9,900  Descending New York Center
09:28PM 40.5333 -74.8667 107° East 383 441 10,000 60 Climbing New York TRACON
09:29PM 40.4833 -74.7500 119° Southeast 383 441 10,000  Level New York TRACON
09:30PM 40.4500 -74.6333 111° Southeast 376 433 10,000 -540 Level New York TRACON
09:31PM 40.4333 -74.5167 101° East 326 375 9,000 -1,020 Descending New York TRACON
09:32PM 40.4667 -74.4167 66° East 305 351 8,000 -960 Descending New York TRACON
09:33PM 40.4833 -74.3167 78° East 298 343 7,100 -540 Descending New York TRACON
09:34PM 40.5167 -74.2000 69° East 300 345 7,000 -660 Descending New York TRACON
09:35PM 40.5667 -74.1167 52° Northeast 298 343 5,800 -1,440 Descending New York TRACON
09:36PM 40.6333 -74.0500 37° Northeast 291 335 4,200 -900 Descending New York TRACON
09:37PM 40.7000 -74.0333 11° North 289 333 4,000 -120 Descending New York TRACON
09:38PM 40.7833 -74.0000 17° North 288 331 4,000  Level New York TRACON
09:39PM 40.8500 -73.9500 30° Northeast 289 333 4,000  Level New York TRACON
09:40PM 40.9167 -73.9167 21° North 249 287 4,000  Level New York TRACON
09:41PM 40.9833 -73.8833 21° North 214 246 4,000 -60 Level New York TRACON
09:42PM 40.9833 -73.8333 90° East 211 243 3,900 -480 Descending New York TRACON
09:43PM 40.9500 -73.7833 131° Southeast 180 207 3,100 -900 Descending New York TRACON
09:44PM 40.9167 -73.7833 180° South 144 166 2,200 -900 Descending New York TRACON